RJTA(METAR)
01/24 01:00
METAR RJTA 231600Z 02004KT 9999 FEW020 M02/M14 Q1017 RMK 1CU020
A3003=
戻る
トップページへ戻る
IMOC Co,.Ltd.